Pagina principale
METAR-TAF:

METAR-TAF

Aeroporti :

Rarotonga, Isole Cook

latitudine: 21-12S, longitudine: 159-49W, altezza: 7 m

Osservazione

Il bollettino è stato emesso 1 ora e 43 minuti fa, alle 04:00 UTC
Vento 9 kt da sud-est
Temperature 23°C
Umidità 65%
Pressione 1015 hPa
Visibilità 10 km o più
Poco nuvoloso ad un'altezza di 2500 ft

METAR: NCRG 180400Z 14009KT 9999 FEW025 23/16 Q1015

Ora: 19:43 (05:43 UTC)

Previsione

Il bollettino è stato emesso 18 minuti fa, alle 05:25 UTC
Previsione valida dal 18 alle 06 UTC al 19 alle 06 UTC
Vento 8 kt da sud-est
Visibilità 10 km o più
Poco nuvoloso ad un'altezza di 2500 ft

TAF: NCRG 180525Z 1806/1906 13008KT 9999 FEW025

Osservazioni e previsioni meteorologiche di più di 4000 aeroporti (messaggi METAR e TAF).

Le stazioni disponibili sono rappresentate dai dischi gialli e rossi sulla carta.

Puntare il mouse per vedere il nome della stazione.

Clicca sopra per visualizzare le osservazioni e previsioni meteorologiche.

Per cambiare la mappa : fare clic sui pulsanti verdi con una croce nera per ingrandire, il pulsante verde con un trattino per diminuire, o sulla freccia verde per le mappe adiacenti.


METAR-TAF: